PWSweather.com
Personal Weather Stations
Station Observations
SD92115WX
El Cerrito Stoneybluff, San Diego, CA 92115

El Cerrito StoneybluffSan Diego, CA 92115

Lat: 32.754096, Lon: -117.066705

Elevation: 420

Station Type: Davis Vantage Vue

http://stoneybluff.com

High Low Average
Temperature 62.2°F16.8°C 53.4°F11.9°C 56.5°F13.6°C
Dew Point 53.2°F11.8°C 48.7°F9.3°C 51.7°F10.9°C
Winds 10.1 mph 16.3 kmh Calm Calm 3.0 mph SW4.8 kmh SW
Wind Gusts 20.1 mph32.3 kmh -- 7.0 mph11.3 kmh
Humidity 94% 62% 84%
Pressure 29.82 in1009.8 mb 29.69 in1005.4 mb -
Precipitation 0.29 in7.4 mm - -
Hour Temp Dew Point Humidity Winds Wind Gusts Pressure Precip Precip Rate Daily Precip Total
12:02 AM 55.8°F13.2°C 51.6°F10.9°C 86% 3.4 mph NW5.5 kmh NW 13.9 mph22.4 kmh 29.76 in1007.8 mb 0.01 in0.3 mm 0.30 in7.6 mm 0.01 in0.3 mm
12:07 AM 55.8°F13.2°C 51.6°F10.9°C 86% 3.8 mph NW6.1 kmh NW 9.6 mph15.4 kmh 29.76 in1007.8 mb 0.01 in0.3 mm 0.00 in0.0 mm 0.01 in0.3 mm
12:12 AM 55.8°F13.2°C 51.6°F10.9°C 86% 1.8 mph W2.9 kmh W 10.5 mph16.9 kmh 29.76 in1007.8 mb 0.01 in0.3 mm 0.00 in0.0 mm 0.01 in0.3 mm
12:17 AM 55.8°F13.2°C 51.3°F10.7°C 85% 3.8 mph SW6.1 kmh SW 10.5 mph16.9 kmh 29.76 in1007.8 mb 0.01 in0.3 mm 0.00 in0.0 mm 0.01 in0.3 mm
12:22 AM 55.8°F13.2°C 51.3°F10.7°C 85% 4.5 mph WNW7.2 kmh WNW 10.5 mph16.9 kmh 29.76 in1007.8 mb 0.01 in0.3 mm 0.00 in0.0 mm 0.01 in0.3 mm
12:27 AM 55.9°F13.3°C 51.3°F10.7°C 84% 5.4 mph WSW8.7 kmh WSW 11.6 mph18.7 kmh 29.76 in1007.8 mb 0.01 in0.3 mm 0.00 in0.0 mm 0.01 in0.3 mm
12:32 AM 55.9°F13.3°C 51.3°F10.7°C 84% 4.7 mph WSW7.6 kmh WSW 11.6 mph18.7 kmh 29.75 in1007.5 mb 0.01 in0.3 mm 0.00 in0.0 mm 0.01 in0.3 mm
12:37 AM 56.1°F13.4°C 51.1°F10.6°C 83% 3.8 mph SW6.1 kmh SW 10.5 mph16.9 kmh 29.76 in1007.8 mb 0.00 in0.0 mm 0.00 in0.0 mm 0.01 in0.3 mm
12:42 AM 55.9°F13.3°C 50.9°F10.5°C 83% 6.0 mph NNW9.7 kmh NNW 11.6 mph18.7 kmh 29.75 in1007.5 mb 0.00 in0.0 mm 0.00 in0.0 mm 0.01 in0.3 mm
12:47 AM 55.9°F13.3°C 50.9°F10.5°C 83% 4.7 mph NW7.6 kmh NW 8.5 mph13.7 kmh 29.75 in1007.5 mb 0.00 in0.0 mm 0.00 in0.0 mm 0.01 in0.3 mm
12:52 AM 56.1°F13.4°C 51.1°F10.6°C 83% 3.8 mph WSW6.1 kmh WSW 8.5 mph13.7 kmh 29.75 in1007.5 mb 0.00 in0.0 mm 0.00 in0.0 mm 0.01 in0.3 mm
12:57 AM 56.1°F13.4°C 51.1°F10.6°C 83% 4.7 mph SW7.6 kmh SW 9.6 mph15.4 kmh 29.75 in1007.5 mb 0.00 in0.0 mm 0.00 in0.0 mm 0.01 in0.3 mm
01:02 AM 56.1°F13.4°C 51.1°F10.6°C 83% 3.6 mph S5.8 kmh S 11.6 mph18.7 kmh 29.75 in1007.5 mb 0.00 in0.0 mm 0.00 in0.0 mm 0.01 in0.3 mm
01:07 AM 56.1°F13.4°C 51.1°F10.6°C 83% 4.5 mph SW7.2 kmh SW 8.5 mph13.7 kmh 29.74 in1007.1 mb 0.00 in0.0 mm 0.00 in0.0 mm 0.01 in0.3 mm
01:12 AM 56.1°F13.4°C 51.1°F10.6°C 83% 3.8 mph SSW6.1 kmh SSW 9.6 mph15.4 kmh 29.74 in1007.1 mb 0.00 in0.0 mm 0.00 in0.0 mm 0.01 in0.3 mm
01:17 AM 55.9°F13.3°C 50.9°F10.5°C 83% 3.1 mph WNW5.0 kmh WNW 11.6 mph18.7 kmh 29.74 in1007.1 mb 0.00 in0.0 mm 0.00 in0.0 mm 0.01 in0.3 mm
01:22 AM 55.9°F13.3°C 50.9°F10.5°C 83% 5.6 mph SW9.0 kmh SW 10.5 mph16.9 kmh 29.74 in1007.1 mb 0.00 in0.0 mm 0.00 in0.0 mm 0.01 in0.3 mm
01:27 AM 55.9°F13.3°C 50.5°F10.3°C 82% 2.7 mph WSW4.3 kmh WSW 9.6 mph15.4 kmh 29.74 in1007.1 mb 0.00 in0.0 mm 0.00 in0.0 mm 0.01 in0.3 mm
01:32 AM 55.9°F13.3°C 50.5°F10.3°C 82% 5.8 mph W9.3 kmh W 10.5 mph16.9 kmh 29.74 in1007.1 mb 0.00 in0.0 mm 0.00 in0.0 mm 0.01 in0.3 mm
01:37 AM 55.9°F13.3°C 50.9°F10.5°C 83% 2.5 mph SW4.0 kmh SW 10.5 mph16.9 kmh 29.74 in1007.1 mb 0.00 in0.0 mm 0.00 in0.0 mm 0.01 in0.3 mm
01:42 AM 55.9°F13.3°C 50.9°F10.5°C 83% 2.2 mph WSW3.5 kmh WSW 6.3 mph10.1 kmh 29.74 in1007.1 mb 0.00 in0.0 mm 0.00 in0.0 mm 0.01 in0.3 mm
01:47 AM 55.9°F13.3°C 50.9°F10.5°C 83% 3.4 mph WSW5.5 kmh WSW 10.5 mph16.9 kmh 29.74 in1007.1 mb 0.00 in0.0 mm 0.00 in0.0 mm 0.01 in0.3 mm
01:52 AM 55.8°F13.2°C 51.1°F10.6°C 84% 3.4 mph WSW5.5 kmh WSW 10.5 mph16.9 kmh 29.73 in1006.8 mb 0.00 in0.0 mm 0.00 in0.0 mm 0.01 in0.3 mm
01:57 AM 55.6°F13.1°C 51.1°F10.6°C 85% 2.7 mph SW4.3 kmh SW 7.4 mph11.9 kmh 29.73 in1006.8 mb 0.00 in0.0 mm 0.00 in0.0 mm 0.01 in0.3 mm
02:02 AM 55.4°F13.0°C 51.3°F10.7°C 86% 3.6 mph SW5.8 kmh SW 7.4 mph11.9 kmh 29.73 in1006.8 mb 0.00 in0.0 mm 0.00 in0.0 mm 0.01 in0.3 mm
02:07 AM 55.2°F12.9°C 51.1°F10.6°C 86% 1.8 mph SW2.9 kmh SW 10.5 mph16.9 kmh 29.72 in1006.4 mb 0.00 in0.0 mm 0.00 in0.0 mm 0.01 in0.3 mm
02:12 AM 55.2°F12.9°C 51.1°F10.6°C 86% 4.0 mph WNW6.4 kmh WNW 8.5 mph13.7 kmh 29.72 in1006.4 mb 0.00 in0.0 mm 0.00 in0.0 mm 0.01 in0.3 mm
02:17 AM 55.2°F12.9°C 51.1°F10.6°C 86% 5.4 mph SW8.7 kmh SW 9.6 mph15.4 kmh 29.72 in1006.4 mb 0.00 in0.0 mm 0.00 in0.0 mm 0.01 in0.3 mm
02:22 AM 55.0°F12.8°C 51.3°F10.7°C 87% 3.4 mph SW5.5 kmh SW 10.5 mph16.9 kmh 29.72 in1006.4 mb 0.00 in0.0 mm 0.00 in0.0 mm 0.01 in0.3 mm
02:27 AM 54.9°F12.7°C 51.4°F10.8°C 88% 2.9 mph SW4.7 kmh SW 8.5 mph13.7 kmh 29.72 in1006.4 mb 0.01 in0.3 mm 0.12 in3.0 mm 0.01 in0.3 mm
02:32 AM 54.7°F12.6°C 51.3°F10.7°C 88% 4.5 mph W7.2 kmh W 10.5 mph16.9 kmh 29.72 in1006.4 mb 0.01 in0.3 mm 0.00 in0.0 mm 0.01 in0.3 mm
02:37 AM 54.7°F12.6°C 51.4°F10.8°C 89% 1.6 mph SW2.6 kmh SW 8.5 mph13.7 kmh 29.72 in1006.4 mb 0.01 in0.3 mm 0.00 in0.0 mm 0.01 in0.3 mm
02:42 AM 54.7°F12.6°C 51.4°F10.8°C 89% 3.4 mph WSW5.5 kmh WSW 6.3 mph10.1 kmh 29.72 in1006.4 mb 0.01 in0.3 mm 0.00 in0.0 mm 0.01 in0.3 mm
02:47 AM 54.7°F12.6°C 51.4°F10.8°C 89% 2.9 mph W4.7 kmh W 10.5 mph16.9 kmh 29.72 in1006.4 mb 0.01 in0.3 mm 0.00 in0.0 mm 0.01 in0.3 mm
02:52 AM 54.7°F12.6°C 51.4°F10.8°C 89% 3.8 mph SW6.1 kmh SW 9.6 mph15.4 kmh 29.71 in1006.1 mb 0.01 in0.3 mm 0.00 in0.0 mm 0.01 in0.3 mm
02:57 AM 54.9°F12.7°C 51.4°F10.8°C 88% 3.1 mph WSW5.0 kmh WSW 8.5 mph13.7 kmh 29.71 in1006.1 mb 0.01 in0.3 mm 0.00 in0.0 mm 0.01 in0.3 mm
03:02 AM 54.9°F12.7°C 51.1°F10.6°C 87% 3.1 mph SW5.0 kmh SW 6.3 mph10.1 kmh 29.71 in1006.1 mb 0.01 in0.3 mm 0.00 in0.0 mm 0.01 in0.3 mm
03:07 AM 55.0°F12.8°C 51.3°F10.7°C 87% 2.7 mph SW4.3 kmh SW 7.4 mph11.9 kmh 29.71 in1006.1 mb 0.01 in0.3 mm 0.00 in0.0 mm 0.01 in0.3 mm
03:12 AM 55.0°F12.8°C 51.3°F10.7°C 87% 5.8 mph SW9.3 kmh SW 10.5 mph16.9 kmh 29.70 in1005.8 mb 0.01 in0.3 mm 0.00 in0.0 mm 0.01 in0.3 mm
03:17 AM 55.2°F12.9°C 51.1°F10.6°C 86% 2.5 mph WSW4.0 kmh WSW 8.5 mph13.7 kmh 29.71 in1006.1 mb 0.01 in0.3 mm 0.00 in0.0 mm 0.01 in0.3 mm
03:22 AM 55.2°F12.9°C 50.7°F10.4°C 85% 3.8 mph NW6.1 kmh NW 8.5 mph13.7 kmh 29.70 in1005.8 mb 0.01 in0.3 mm 0.00 in0.0 mm 0.01 in0.3 mm
03:27 AM 55.4°F13.0°C 50.9°F10.5°C 85% 4.3 mph W6.9 kmh W 10.5 mph16.9 kmh 29.70 in1005.8 mb 0.00 in0.0 mm 0.00 in0.0 mm 0.01 in0.3 mm
03:32 AM 55.6°F13.1°C 51.1°F10.6°C 85% 4.5 mph W7.2 kmh W 10.5 mph16.9 kmh 29.70 in1005.8 mb 0.00 in0.0 mm 0.00 in0.0 mm 0.01 in0.3 mm
03:37 AM 55.6°F13.1°C 51.1°F10.6°C 85% 5.4 mph SW8.7 kmh SW 8.5 mph13.7 kmh 29.70 in1005.8 mb 0.00 in0.0 mm 0.00 in0.0 mm 0.01 in0.3 mm
03:42 AM 55.6°F13.1°C 51.1°F10.6°C 85% 4.9 mph WSW7.9 kmh WSW 9.6 mph15.4 kmh 29.70 in1005.8 mb 0.00 in0.0 mm 0.00 in0.0 mm 0.01 in0.3 mm
03:47 AM 55.4°F13.0°C 50.9°F10.5°C 85% 3.8 mph SW6.1 kmh SW 11.6 mph18.7 kmh 29.70 in1005.8 mb 0.00 in0.0 mm 0.00 in0.0 mm 0.01 in0.3 mm
03:52 AM 55.4°F13.0°C 50.9°F10.5°C 85% 2.9 mph WSW4.7 kmh WSW 6.3 mph10.1 kmh 29.70 in1005.8 mb 0.00 in0.0 mm 0.00 in0.0 mm 0.01 in0.3 mm
03:57 AM 55.4°F13.0°C 50.9°F10.5°C 85% 6.5 mph SW10.5 kmh SW 10.5 mph16.9 kmh 29.70 in1005.8 mb 0.00 in0.0 mm 0.00 in0.0 mm 0.01 in0.3 mm
04:02 AM 55.4°F13.0°C 51.3°F10.7°C 86% 3.8 mph SW6.1 kmh SW 11.6 mph18.7 kmh 29.70 in1005.8 mb 0.00 in0.0 mm 0.00 in0.0 mm 0.01 in0.3 mm
04:07 AM 55.2°F12.9°C 51.1°F10.6°C 86% 1.8 mph WSW2.9 kmh WSW 8.5 mph13.7 kmh 29.70 in1005.8 mb 0.00 in0.0 mm 0.00 in0.0 mm 0.01 in0.3 mm
04:12 AM 55.2°F12.9°C 51.1°F10.6°C 86% 1.6 mph SSW2.6 kmh SSW 5.4 mph8.7 kmh 29.69 in1005.4 mb 0.00 in0.0 mm 0.00 in0.0 mm 0.01 in0.3 mm
04:17 AM 55.0°F12.8°C 51.3°F10.7°C 87% 3.6 mph WSW5.8 kmh WSW 7.4 mph11.9 kmh 29.69 in1005.4 mb 0.00 in0.0 mm 0.00 in0.0 mm 0.01 in0.3 mm
04:22 AM 55.0°F12.8°C 51.3°F10.7°C 87% 3.4 mph W5.5 kmh W 8.5 mph13.7 kmh 29.69 in1005.4 mb 0.00 in0.0 mm 0.00 in0.0 mm 0.01 in0.3 mm
04:27 AM 54.9°F12.7°C 51.4°F10.8°C 88% 1.3 mph SW2.1 kmh SW 5.4 mph8.7 kmh 29.69 in1005.4 mb 0.00 in0.0 mm 0.00 in0.0 mm 0.01 in0.3 mm
04:32 AM 54.7°F12.6°C 51.4°F10.8°C 89% 3.4 mph SW5.5 kmh SW 6.3 mph10.1 kmh 29.69 in1005.4 mb 0.00 in0.0 mm 0.00 in0.0 mm 0.01 in0.3 mm
04:37 AM 54.7°F12.6°C 51.4°F10.8°C 89% 4.3 mph SW6.9 kmh SW 8.5 mph13.7 kmh 29.69 in1005.4 mb 0.00 in0.0 mm 0.00 in0.0 mm 0.01 in0.3 mm
04:42 AM 54.3°F12.4°C 51.4°F10.8°C 90% 0.9 mph WSW1.4 kmh WSW 7.4 mph11.9 kmh 29.69 in1005.4 mb 0.01 in0.3 mm 0.12 in3.0 mm 0.02 in0.5 mm
04:47 AM 54.3°F12.4°C 51.4°F10.8°C 90% 2.5 mph SW4.0 kmh SW 7.4 mph11.9 kmh 29.69 in1005.4 mb 0.01 in0.3 mm 0.00 in0.0 mm 0.02 in0.5 mm
04:52 AM 54.3°F12.4°C 51.4°F10.8°C 90% 0.7 mph SSW1.1 kmh SSW 4.3 mph6.9 kmh 29.69 in1005.4 mb 0.01 in0.3 mm 0.00 in0.0 mm 0.02 in0.5 mm
04:57 AM 54.3°F12.4°C 51.8°F11.0°C 91% 1.3 mph SSW2.1 kmh SSW 4.3 mph6.9 kmh 29.69 in1005.4 mb 0.01 in0.3 mm 0.00 in0.0 mm 0.02 in0.5 mm
05:02 AM 54.3°F12.4°C 51.8°F11.0°C 91% 0.2 mph SW0.3 kmh SW 3.1 mph5.0 kmh 29.69 in1005.4 mb 0.01 in0.3 mm 0.00 in0.0 mm 0.02 in0.5 mm
05:07 AM 54.1°F12.3°C 51.6°F10.9°C 91% 1.6 mph SW2.6 kmh SW 3.1 mph5.0 kmh 29.69 in1005.4 mb 0.01 in0.3 mm 0.00 in0.0 mm 0.02 in0.5 mm
05:12 AM 54.1°F12.3°C 51.6°F10.9°C 91% 2.2 mph SW3.5 kmh SW 4.3 mph6.9 kmh 29.69 in1005.4 mb 0.01 in0.3 mm 0.00 in0.0 mm 0.02 in0.5 mm
05:17 AM 54.1°F12.3°C 51.8°F11.0°C 92% 0.9 mph W1.4 kmh W 4.3 mph6.9 kmh 29.69 in1005.4 mb 0.01 in0.3 mm 0.00 in0.0 mm 0.02 in0.5 mm
05:22 AM 54.1°F12.3°C 51.8°F11.0°C 92% Calm Calm 2.0 mph3.2 kmh 29.69 in1005.4 mb 0.01 in0.3 mm 0.00 in0.0 mm 0.02 in0.5 mm
05:27 AM 54.1°F12.3°C 51.8°F11.0°C 92% 0.7 mph SW1.1 kmh SW 2.0 mph3.2 kmh 29.69 in1005.4 mb 0.01 in0.3 mm 0.00 in0.0 mm 0.02 in0.5 mm
05:32 AM 54.1°F12.3°C 51.8°F11.0°C 92% 1.1 mph SW1.8 kmh SW 3.1 mph5.0 kmh 29.69 in1005.4 mb 0.01 in0.3 mm 0.00 in0.0 mm 0.02 in0.5 mm
05:37 AM 54.1°F12.3°C 51.8°F11.0°C 92% 1.6 mph SW2.6 kmh SW 4.3 mph6.9 kmh 29.69 in1005.4 mb 0.01 in0.3 mm 0.00 in0.0 mm 0.02 in0.5 mm
05:42 AM 54.1°F12.3°C 51.8°F11.0°C 92% 2.0 mph SSW3.2 kmh SSW 5.4 mph8.7 kmh 29.69 in1005.4 mb 0.02 in0.5 mm 0.12 in3.0 mm 0.04 in1.0 mm
05:47 AM 54.1°F12.3°C 51.8°F11.0°C 92% 0.2 mph NW0.3 kmh NW 3.1 mph5.0 kmh 29.69 in1005.4 mb 0.03 in0.8 mm 0.12 in3.0 mm 0.05 in1.3 mm
05:52 AM 54.1°F12.3°C 52.2°F11.2°C 93% Calm Calm 1.1 mph1.8 kmh 29.69 in1005.4 mb 0.03 in0.8 mm 0.00 in0.0 mm 0.05 in1.3 mm
05:57 AM 54.1°F12.3°C 52.2°F11.2°C 93% 0.9 mph WSW1.4 kmh WSW 3.1 mph5.0 kmh 29.69 in1005.4 mb 0.03 in0.8 mm 0.00 in0.0 mm 0.05 in1.3 mm
06:02 AM 54.1°F12.3°C 52.2°F11.2°C 93% 0.4 mph SSW0.6 kmh SSW 2.0 mph3.2 kmh 29.69 in1005.4 mb 0.03 in0.8 mm 0.00 in0.0 mm 0.05 in1.3 mm
06:07 AM 54.1°F12.3°C 52.2°F11.2°C 93% Calm Calm 2.0 mph3.2 kmh 29.69 in1005.4 mb 0.03 in0.8 mm 0.00 in0.0 mm 0.05 in1.3 mm
06:12 AM 54.1°F12.3°C 52.2°F11.2°C 93% Calm Calm 2.0 mph3.2 kmh 29.69 in1005.4 mb 0.03 in0.8 mm 0.00 in0.0 mm 0.05 in1.3 mm
06:17 AM 54.3°F12.4°C 52.3°F11.3°C 93% Calm Calm 1.1 mph1.8 kmh 29.69 in1005.4 mb 0.03 in0.8 mm 0.00 in0.0 mm 0.05 in1.3 mm
06:22 AM 54.3°F12.4°C 52.3°F11.3°C 93% 0.9 mph SSW1.4 kmh SSW 2.0 mph3.2 kmh 29.69 in1005.4 mb 0.03 in0.8 mm 0.00 in0.0 mm 0.05 in1.3 mm
06:27 AM 54.3°F12.4°C 52.3°F11.3°C 93% 0.2 mph SW0.3 kmh SW 2.0 mph3.2 kmh 29.70 in1005.8 mb 0.03 in0.8 mm 0.00 in0.0 mm 0.05 in1.3 mm
06:32 AM 54.5°F12.5°C 52.9°F11.6°C 94% 0.7 mph SW1.1 kmh SW 2.0 mph3.2 kmh 29.70 in1005.8 mb 0.03 in0.8 mm 0.00 in0.0 mm 0.05 in1.3 mm
06:37 AM 54.7°F12.6°C 52.7°F11.5°C 93% 1.3 mph SW2.1 kmh SW 2.0 mph3.2 kmh 29.70 in1005.8 mb 0.03 in0.8 mm 0.00 in0.0 mm 0.05 in1.3 mm
06:42 AM 54.7°F12.6°C 53.1°F11.7°C 94% 1.8 mph SW2.9 kmh SW 3.1 mph5.0 kmh 29.70 in1005.8 mb 0.01 in0.3 mm 0.00 in0.0 mm 0.05 in1.3 mm
06:47 AM 54.7°F12.6°C 52.7°F11.5°C 93% 1.3 mph WSW2.1 kmh WSW 4.3 mph6.9 kmh 29.70 in1005.8 mb 0.00 in0.0 mm 0.00 in0.0 mm 0.05 in1.3 mm
06:52 AM 54.7°F12.6°C 53.1°F11.7°C 94% 1.3 mph SW2.1 kmh SW 3.1 mph5.0 kmh 29.70 in1005.8 mb 0.00 in0.0 mm 0.00 in0.0 mm 0.05 in1.3 mm
06:57 AM 54.9°F12.7°C 53.2°F11.8°C 94% 1.3 mph SW2.1 kmh SW 3.1 mph5.0 kmh 29.71 in1006.1 mb 0.00 in0.0 mm 0.00 in0.0 mm 0.05 in1.3 mm
07:02 AM 54.9°F12.7°C 53.2°F11.8°C 94% 1.1 mph WSW1.8 kmh WSW 2.0 mph3.2 kmh 29.71 in1006.1 mb 0.00 in0.0 mm 0.00 in0.0 mm 0.05 in1.3 mm
07:07 AM 54.9°F12.7°C 52.9°F11.6°C 93% 1.6 mph WSW2.6 kmh WSW 5.4 mph8.7 kmh 29.71 in1006.1 mb 0.00 in0.0 mm 0.00 in0.0 mm 0.05 in1.3 mm
07:12 AM 54.9°F12.7°C 52.9°F11.6°C 93% 0.4 mph NW0.6 kmh NW 3.1 mph5.0 kmh 29.71 in1006.1 mb 0.00 in0.0 mm 0.00 in0.0 mm 0.05 in1.3 mm
07:17 AM 55.0°F12.8°C 53.1°F11.7°C 93% 0.2 mph NW0.3 kmh NW 4.3 mph6.9 kmh 29.71 in1006.1 mb 0.00 in0.0 mm 0.00 in0.0 mm 0.05 in1.3 mm
07:22 AM 55.0°F12.8°C 53.1°F11.7°C 93% 0.4 mph WSW0.6 kmh WSW 3.1 mph5.0 kmh 29.71 in1006.1 mb 0.00 in0.0 mm 0.00 in0.0 mm 0.05 in1.3 mm
07:27 AM 55.0°F12.8°C 52.7°F11.5°C 92% 3.4 mph SW5.5 kmh SW 8.5 mph13.7 kmh 29.71 in1006.1 mb 0.00 in0.0 mm 0.00 in0.0 mm 0.05 in1.3 mm
07:32 AM 55.0°F12.8°C 52.7°F11.5°C 92% 3.4 mph W5.5 kmh W 8.5 mph13.7 kmh 29.71 in1006.1 mb 0.00 in0.0 mm 0.00 in0.0 mm 0.05 in1.3 mm
07:37 AM 55.2°F12.9°C 52.9°F11.6°C 92% 0.4 mph S0.6 kmh S 6.3 mph10.1 kmh 29.71 in1006.1 mb 0.00 in0.0 mm 0.00 in0.0 mm 0.05 in1.3 mm
07:42 AM 55.6°F13.1°C 53.1°F11.7°C 91% 2.2 mph SSW3.5 kmh SSW 5.4 mph8.7 kmh 29.71 in1006.1 mb 0.00 in0.0 mm 0.00 in0.0 mm 0.05 in1.3 mm
07:47 AM 55.6°F13.1°C 53.1°F11.7°C 91% 1.1 mph SW1.8 kmh SW 3.1 mph5.0 kmh 29.71 in1006.1 mb 0.00 in0.0 mm 0.00 in0.0 mm 0.05 in1.3 mm
07:52 AM 55.8°F13.2°C 53.2°F11.8°C 91% 3.4 mph WNW5.5 kmh WNW 7.4 mph11.9 kmh 29.71 in1006.1 mb 0.00 in0.0 mm 0.00 in0.0 mm 0.05 in1.3 mm
07:57 AM 55.9°F13.3°C 53.1°F11.7°C 90% 2.0 mph SW3.2 kmh SW 6.3 mph10.1 kmh 29.71 in1006.1 mb 0.00 in0.0 mm 0.00 in0.0 mm 0.05 in1.3 mm
08:02 AM 56.1°F13.4°C 53.2°F11.8°C 90% 2.2 mph WNW3.5 kmh WNW 7.4 mph11.9 kmh 29.72 in1006.4 mb 0.00 in0.0 mm 0.00 in0.0 mm 0.05 in1.3 mm
08:07 AM 56.1°F13.4°C 52.9°F11.6°C 89% 2.2 mph NW3.5 kmh NW 6.3 mph10.1 kmh 29.71 in1006.1 mb 0.00 in0.0 mm 0.00 in0.0 mm 0.05 in1.3 mm
08:12 AM 56.1°F13.4°C 52.9°F11.6°C 89% 1.8 mph NW2.9 kmh NW 9.6 mph15.4 kmh 29.72 in1006.4 mb 0.00 in0.0 mm 0.00 in0.0 mm 0.05 in1.3 mm
08:17 AM 56.3°F13.5°C 52.9°F11.6°C 88% 4.5 mph SSW7.2 kmh SSW 9.6 mph15.4 kmh 29.71 in1006.1 mb 0.00 in0.0 mm 0.00 in0.0 mm 0.05 in1.3 mm
08:22 AM 56.5°F13.6°C 52.9°F11.6°C 88% 4.9 mph WSW7.9 kmh WSW 10.5 mph16.9 kmh 29.72 in1006.4 mb 0.00 in0.0 mm 0.00 in0.0 mm 0.05 in1.3 mm
08:27 AM 56.5°F13.6°C 52.7°F11.5°C 87% 4.3 mph W6.9 kmh W 10.5 mph16.9 kmh 29.72 in1006.4 mb 0.00 in0.0 mm 0.00 in0.0 mm 0.05 in1.3 mm
08:32 AM 56.3°F13.5°C 52.2°F11.2°C 86% 4.5 mph WNW7.2 kmh WNW 10.5 mph16.9 kmh 29.72 in1006.4 mb 0.00 in0.0 mm 0.00 in0.0 mm 0.05 in1.3 mm
08:37 AM 56.3°F13.5°C 52.2°F11.2°C 86% 4.3 mph W6.9 kmh W 9.6 mph15.4 kmh 29.72 in1006.4 mb 0.00 in0.0 mm 0.00 in0.0 mm 0.05 in1.3 mm
08:42 AM 56.5°F13.6°C 52.3°F11.3°C 86% 3.6 mph NNW5.8 kmh NNW 8.5 mph13.7 kmh 29.72 in1006.4 mb 0.00 in0.0 mm 0.00 in0.0 mm 0.05 in1.3 mm
08:47 AM 56.7°F13.7°C 51.8°F11.0°C 84% 4.9 mph WSW7.9 kmh WSW 9.6 mph15.4 kmh 29.72 in1006.4 mb 0.00 in0.0 mm 0.00 in0.0 mm 0.05 in1.3 mm
08:52 AM 57.0°F13.9°C 52.2°F11.2°C 84% 3.1 mph SW5.0 kmh SW 9.6 mph15.4 kmh 29.72 in1006.4 mb 0.00 in0.0 mm 0.00 in0.0 mm 0.05 in1.3 mm
08:57 AM 57.4°F14.1°C 52.3°F11.3°C 83% 5.6 mph SW9.0 kmh SW 10.5 mph16.9 kmh 29.72 in1006.4 mb 0.00 in0.0 mm 0.00 in0.0 mm 0.05 in1.3 mm
09:02 AM 57.4°F14.1°C 52.0°F11.1°C 82% 4.7 mph WNW7.6 kmh WNW 9.6 mph15.4 kmh 29.72 in1006.4 mb 0.00 in0.0 mm 0.00 in0.0 mm 0.05 in1.3 mm
09:07 AM 57.4°F14.1°C 52.0°F11.1°C 82% 3.4 mph SW5.5 kmh SW 9.6 mph15.4 kmh 29.72 in1006.4 mb 0.00 in0.0 mm 0.00 in0.0 mm 0.05 in1.3 mm
09:12 AM 57.4°F14.1°C 51.6°F10.9°C 81% 4.3 mph W6.9 kmh W 11.6 mph18.7 kmh 29.72 in1006.4 mb 0.00 in0.0 mm 0.00 in0.0 mm 0.05 in1.3 mm
09:17 AM 57.4°F14.1°C 51.6°F10.9°C 81% 4.5 mph SSW7.2 kmh SSW 8.5 mph13.7 kmh 29.72 in1006.4 mb 0.00 in0.0 mm 0.00 in0.0 mm 0.05 in1.3 mm
09:22 AM 57.9°F14.4°C 51.8°F11.0°C 80% 6.0 mph WSW9.7 kmh WSW 11.6 mph18.7 kmh 29.72 in1006.4 mb 0.00 in0.0 mm 0.00 in0.0 mm 0.05 in1.3 mm
09:27 AM 57.9°F14.4°C 51.1°F10.6°C 78% 2.5 mph W4.0 kmh W 10.5 mph16.9 kmh 29.72 in1006.4 mb 0.00 in0.0 mm 0.00 in0.0 mm 0.05 in1.3 mm
09:32 AM 58.3°F14.6°C 51.1°F10.6°C 77% 5.1 mph WSW8.2 kmh WSW 10.5 mph16.9 kmh 29.72 in1006.4 mb 0.00 in0.0 mm 0.00 in0.0 mm 0.05 in1.3 mm
09:37 AM 58.3°F14.6°C 51.1°F10.6°C 77% 2.9 mph W4.7 kmh W 10.5 mph16.9 kmh 29.72 in1006.4 mb 0.00 in0.0 mm 0.00 in0.0 mm 0.05 in1.3 mm
09:42 AM 58.8°F14.9°C 51.3°F10.7°C 76% 6.5 mph SSW10.5 kmh SSW 12.8 mph20.6 kmh 29.72 in1006.4 mb 0.00 in0.0 mm 0.00 in0.0 mm 0.05 in1.3 mm
09:47 AM 59.0°F15.0°C 50.7°F10.4°C 74% 6.3 mph W10.1 kmh W 11.6 mph18.7 kmh 29.72 in1006.4 mb 0.00 in0.0 mm 0.00 in0.0 mm 0.05 in1.3 mm
09:52 AM 58.6°F14.8°C 50.7°F10.4°C 75% 3.6 mph WSW5.8 kmh WSW 10.5 mph16.9 kmh 29.72 in1006.4 mb 0.00 in0.0 mm 0.00 in0.0 mm 0.05 in1.3 mm
09:57 AM 59.2°F15.1°C 51.6°F10.9°C 76% 5.4 mph SW8.7 kmh SW 11.6 mph18.7 kmh 29.72 in1006.4 mb 0.00 in0.0 mm 0.00 in0.0 mm 0.05 in1.3 mm
10:02 AM 59.4°F15.2°C 50.7°F10.4°C 73% 6.3 mph WSW10.1 kmh WSW 10.5 mph16.9 kmh 29.72 in1006.4 mb 0.00 in0.0 mm 0.00 in0.0 mm 0.05 in1.3 mm
10:07 AM 58.8°F14.9°C 50.9°F10.5°C 75% 4.5 mph SW7.2 kmh SW 11.6 mph18.7 kmh 29.73 in1006.8 mb 0.00 in0.0 mm 0.00 in0.0 mm 0.05 in1.3 mm
10:12 AM 58.6°F14.8°C 50.4°F10.2°C 74% 4.3 mph SW6.9 kmh SW 12.8 mph20.6 kmh 29.73 in1006.8 mb 0.00 in0.0 mm 0.00 in0.0 mm 0.05 in1.3 mm
10:17 AM 58.8°F14.9°C 50.2°F10.1°C 73% 4.0 mph NW6.4 kmh NW 12.8 mph20.6 kmh 29.72 in1006.4 mb 0.00 in0.0 mm 0.00 in0.0 mm 0.05 in1.3 mm
10:22 AM 59.5°F15.3°C 50.9°F10.5°C 73% 5.8 mph SW9.3 kmh SW 13.9 mph22.4 kmh 29.73 in1006.8 mb 0.00 in0.0 mm 0.00 in0.0 mm 0.05 in1.3 mm
10:27 AM 59.0°F15.0°C 49.6°F9.8°C 71% 7.2 mph WSW11.6 kmh WSW 14.8 mph23.8 kmh 29.73 in1006.8 mb 0.01 in0.3 mm 0.12 in3.0 mm 0.06 in1.5 mm
10:32 AM 59.2°F15.1°C 50.5°F10.3°C 73% 5.6 mph SW9.0 kmh SW 11.6 mph18.7 kmh 29.73 in1006.8 mb 0.02 in0.5 mm 0.12 in3.0 mm 0.07 in1.8 mm
10:37 AM 59.9°F15.5°C 50.5°F10.3°C 71% 6.5 mph SSW10.5 kmh SSW 15.9 mph25.6 kmh 29.73 in1006.8 mb 0.02 in0.5 mm 0.00 in0.0 mm 0.07 in1.8 mm
10:42 AM 60.4°F15.8°C 50.5°F10.3°C 70% 4.7 mph ESE7.6 kmh ESE 15.9 mph25.6 kmh 29.73 in1006.8 mb 0.02 in0.5 mm 0.00 in0.0 mm 0.07 in1.8 mm
10:47 AM 60.4°F15.8°C 50.2°F10.1°C 69% 6.7 mph SW10.8 kmh SW 15.9 mph25.6 kmh 29.72 in1006.4 mb 0.02 in0.5 mm 0.00 in0.0 mm 0.07 in1.8 mm
10:52 AM 60.4°F15.8°C 49.8°F9.9°C 68% 6.3 mph WSW10.1 kmh WSW 12.8 mph20.6 kmh 29.73 in1006.8 mb 0.02 in0.5 mm 0.00 in0.0 mm 0.07 in1.8 mm
10:57 AM 60.3°F15.7°C 50.4°F10.2°C 70% 3.8 mph WNW6.1 kmh WNW 11.6 mph18.7 kmh 29.73 in1006.8 mb 0.02 in0.5 mm 0.00 in0.0 mm 0.07 in1.8 mm
11:02 AM 59.5°F15.3°C 49.8°F9.9°C 70% 5.4 mph WSW8.7 kmh WSW 12.8 mph20.6 kmh 29.74 in1007.1 mb 0.02 in0.5 mm 0.00 in0.0 mm 0.07 in1.8 mm
11:07 AM 59.5°F15.3°C 49.8°F9.9°C 70% 7.2 mph SW11.6 kmh SW 13.9 mph22.4 kmh 29.74 in1007.1 mb 0.02 in0.5 mm 0.00 in0.0 mm 0.07 in1.8 mm
11:12 AM 60.1°F15.6°C 49.5°F9.7°C 68% 7.4 mph SW11.9 kmh SW 13.9 mph22.4 kmh 29.73 in1006.8 mb 0.02 in0.5 mm 0.00 in0.0 mm 0.07 in1.8 mm
11:17 AM 60.4°F15.8°C 50.5°F10.3°C 70% 5.1 mph S8.2 kmh S 11.6 mph18.7 kmh 29.74 in1007.1 mb 0.02 in0.5 mm 0.00 in0.0 mm 0.07 in1.8 mm
11:22 AM 60.3°F15.7°C 50.4°F10.2°C 70% 6.5 mph WSW10.5 kmh WSW 11.6 mph18.7 kmh 29.74 in1007.1 mb 0.02 in0.5 mm 0.00 in0.0 mm 0.07 in1.8 mm
11:27 AM 60.6°F15.9°C 50.7°F10.4°C 70% 5.6 mph WSW9.0 kmh WSW 12.8 mph20.6 kmh 29.74 in1007.1 mb 0.01 in0.3 mm 0.00 in0.0 mm 0.07 in1.8 mm
11:32 AM 60.3°F15.7°C 50.4°F10.2°C 70% 5.1 mph WNW8.2 kmh WNW 10.5 mph16.9 kmh 29.74 in1007.1 mb 0.00 in0.0 mm 0.00 in0.0 mm 0.07 in1.8 mm
11:37 AM 60.3°F15.7°C 50.9°F10.5°C 71% 6.0 mph SSW9.7 kmh SSW 11.6 mph18.7 kmh 29.73 in1006.8 mb 0.00 in0.0 mm 0.00 in0.0 mm 0.07 in1.8 mm
11:42 AM 59.9°F15.5°C 50.9°F10.5°C 72% 5.6 mph S9.0 kmh S 12.8 mph20.6 kmh 29.73 in1006.8 mb 0.00 in0.0 mm 0.00 in0.0 mm 0.07 in1.8 mm
11:47 AM 60.3°F15.7°C 50.9°F10.5°C 71% 5.1 mph NW8.2 kmh NW 10.5 mph16.9 kmh 29.74 in1007.1 mb 0.00 in0.0 mm 0.00 in0.0 mm 0.07 in1.8 mm
11:52 AM 60.1°F15.6°C 50.2°F10.1°C 70% 6.9 mph SW11.1 kmh SW 12.8 mph20.6 kmh 29.73 in1006.8 mb 0.00 in0.0 mm 0.00 in0.0 mm 0.07 in1.8 mm
11:57 AM 60.1°F15.6°C 51.1°F10.6°C 72% 6.3 mph SSW10.1 kmh SSW 13.9 mph22.4 kmh 29.73 in1006.8 mb 0.00 in0.0 mm 0.00 in0.0 mm 0.07 in1.8 mm
12:02 PM 60.6°F15.9°C 50.7°F10.4°C 70% 6.9 mph WSW11.1 kmh WSW 20.1 mph32.3 kmh 29.73 in1006.8 mb 0.00 in0.0 mm 0.00 in0.0 mm 0.07 in1.8 mm
12:07 PM 61.2°F16.2°C 50.5°F10.3°C 68% 6.9 mph SW11.1 kmh SW 14.8 mph23.8 kmh 29.73 in1006.8 mb 0.00 in0.0 mm 0.00 in0.0 mm 0.07 in1.8 mm
12:12 PM 61.3°F16.3°C 50.7°F10.4°C 68% 4.0 mph SW6.4 kmh SW 14.8 mph23.8 kmh 29.73 in1006.8 mb 0.00 in0.0 mm 0.00 in0.0 mm 0.07 in1.8 mm
12:17 PM 61.5°F16.4°C 50.5°F10.3°C 67% 8.3 mph SSW13.4 kmh SSW 15.9 mph25.6 kmh 29.73 in1006.8 mb 0.00 in0.0 mm 0.00 in0.0 mm 0.07 in1.8 mm
12:22 PM 61.3°F16.3°C 49.8°F9.9°C 66% 8.7 mph SW14.0 kmh SW 14.8 mph23.8 kmh 29.73 in1006.8 mb 0.00 in0.0 mm 0.00 in0.0 mm 0.07 in1.8 mm
12:27 PM 61.2°F16.2°C 49.6°F9.8°C 66% 5.1 mph W8.2 kmh W 10.5 mph16.9 kmh 29.74 in1007.1 mb 0.00 in0.0 mm 0.00 in0.0 mm 0.07 in1.8 mm
12:32 PM 60.8°F16.0°C 49.8°F9.9°C 67% 8.3 mph S13.4 kmh S 12.8 mph20.6 kmh 29.73 in1006.8 mb 0.00 in0.0 mm 0.00 in0.0 mm 0.07 in1.8 mm
12:37 PM 61.0°F16.1°C 50.7°F10.4°C 69% 7.4 mph SW11.9 kmh SW 13.9 mph22.4 kmh 29.74 in1007.1 mb 0.00 in0.0 mm 0.00 in0.0 mm 0.07 in1.8 mm
12:42 PM 61.0°F16.1°C 50.4°F10.2°C 68% 6.3 mph WSW10.1 kmh WSW 17.0 mph27.4 kmh 29.74 in1007.1 mb 0.00 in0.0 mm 0.00 in0.0 mm 0.07 in1.8 mm
12:47 PM 60.3°F15.7°C 50.0°F10.0°C 69% 7.2 mph NW11.6 kmh NW 13.9 mph22.4 kmh 29.73 in1006.8 mb 0.00 in0.0 mm 0.00 in0.0 mm 0.07 in1.8 mm
12:52 PM 60.4°F15.8°C 49.5°F9.7°C 67% 10.1 mph WSW16.3 kmh WSW 13.9 mph22.4 kmh 29.73 in1006.8 mb 0.00 in0.0 mm 0.00 in0.0 mm 0.07 in1.8 mm
12:57 PM 61.0°F16.1°C 50.0°F10.0°C 67% 6.5 mph SW10.5 kmh SW 12.8 mph20.6 kmh 29.74 in1007.1 mb 0.00 in0.0 mm 0.00 in0.0 mm 0.07 in1.8 mm
01:02 PM 61.2°F16.2°C 49.6°F9.8°C 66% 6.9 mph NW11.1 kmh NW 11.6 mph18.7 kmh 29.73 in1006.8 mb 0.00 in0.0 mm 0.00 in0.0 mm 0.07 in1.8 mm
01:07 PM 61.0°F16.1°C 49.1°F9.5°C 65% 5.1 mph E8.2 kmh E 12.8 mph20.6 kmh 29.73 in1006.8 mb 0.00 in0.0 mm 0.00 in0.0 mm 0.07 in1.8 mm
01:12 PM 60.6°F15.9°C 50.0°F10.0°C 68% 6.3 mph S10.1 kmh S 17.0 mph27.4 kmh 29.73 in1006.8 mb 0.00 in0.0 mm 0.00 in0.0 mm 0.07 in1.8 mm
01:17 PM 61.5°F16.4°C 50.0°F10.0°C 66% 6.9 mph WSW11.1 kmh WSW 12.8 mph20.6 kmh 29.73 in1006.8 mb 0.00 in0.0 mm 0.00 in0.0 mm 0.07 in1.8 mm
01:22 PM 61.0°F16.1°C 49.5°F9.7°C 66% 6.5 mph WSW10.5 kmh WSW 17.0 mph27.4 kmh 29.73 in1006.8 mb 0.00 in0.0 mm 0.00 in0.0 mm 0.07 in1.8 mm
01:27 PM 60.8°F16.0°C 50.2°F10.1°C 68% 4.9 mph SW7.9 kmh SW 10.5 mph16.9 kmh 29.73 in1006.8 mb 0.00 in0.0 mm 0.00 in0.0 mm 0.07 in1.8 mm
01:32 PM 60.8°F16.0°C 49.5°F9.7°C 66% 7.4 mph W11.9 kmh W 11.6 mph18.7 kmh 29.73 in1006.8 mb 0.00 in0.0 mm 0.00 in0.0 mm 0.07 in1.8 mm
01:37 PM 61.2°F16.2°C 50.2°F10.1°C 67% 5.8 mph W9.3 kmh W 13.9 mph22.4 kmh 29.73 in1006.8 mb 0.00 in0.0 mm 0.00 in0.0 mm 0.07 in1.8 mm
01:42 PM 61.5°F16.4°C 50.0°F10.0°C 66% 7.6 mph N12.2 kmh N 13.9 mph22.4 kmh 29.73 in1006.8 mb 0.00 in0.0 mm 0.00 in0.0 mm 0.07 in1.8 mm
01:47 PM 62.2°F16.8°C 49.5°F9.7°C 63% 8.1 mph SSW13.0 kmh SSW 15.9 mph25.6 kmh 29.73 in1006.8 mb 0.00 in0.0 mm 0.00 in0.0 mm 0.07 in1.8 mm
01:52 PM 62.2°F16.8°C 49.5°F9.7°C 63% 5.4 mph W8.7 kmh W 11.6 mph18.7 kmh 29.73 in1006.8 mb 0.00 in0.0 mm 0.00 in0.0 mm 0.07 in1.8 mm
01:57 PM 61.9°F16.6°C 48.7°F9.3°C 62% 5.6 mph SW9.0 kmh SW 12.8 mph20.6 kmh 29.73 in1006.8 mb 0.00 in0.0 mm 0.00 in0.0 mm 0.07 in1.8 mm
02:02 PM 61.3°F16.3°C 49.1°F9.5°C 64% 6.5 mph WNW10.5 kmh WNW 15.9 mph25.6 kmh 29.73 in1006.8 mb 0.00 in0.0 mm 0.00 in0.0 mm 0.07 in1.8 mm
02:07 PM 61.9°F16.6°C 49.6°F9.8°C 64% 4.9 mph WSW7.9 kmh WSW 11.6 mph18.7 kmh 29.73 in1006.8 mb 0.00 in0.0 mm 0.00 in0.0 mm 0.07 in1.8 mm
02:12 PM 61.3°F16.3°C 49.1°F9.5°C 64% 8.7 mph WSW14.0 kmh WSW 14.8 mph23.8 kmh 29.74 in1007.1 mb 0.00 in0.0 mm 0.00 in0.0 mm 0.07 in1.8 mm
02:17 PM 60.6°F15.9°C 51.1°F10.6°C 71% 6.7 mph WSW10.8 kmh WSW 14.8 mph23.8 kmh 29.74 in1007.1 mb 0.00 in0.0 mm 0.00 in0.0 mm 0.07 in1.8 mm
02:22 PM 60.6°F15.9°C 52.0°F11.1°C 73% 6.5 mph W10.5 kmh W 13.9 mph22.4 kmh 29.73 in1006.8 mb 0.00 in0.0 mm 0.00 in0.0 mm 0.07 in1.8 mm
02:27 PM 60.3°F15.7°C 51.3°F10.7°C 72% 7.6 mph SW12.2 kmh SW 14.8 mph23.8 kmh 29.74 in1007.1 mb 0.00 in0.0 mm 0.00 in0.0 mm 0.07 in1.8 mm
02:32 PM 59.4°F15.2°C 51.4°F10.8°C 75% 7.8 mph SW12.6 kmh SW 15.9 mph25.6 kmh 29.74 in1007.1 mb 0.00 in0.0 mm 0.00 in0.0 mm 0.07 in1.8 mm
02:37 PM 58.8°F14.9°C 51.6°F10.9°C 77% 6.9 mph SE11.1 kmh SE 12.8 mph20.6 kmh 29.74 in1007.1 mb 0.00 in0.0 mm 0.00 in0.0 mm 0.07 in1.8 mm
02:42 PM 58.3°F14.6°C 52.5°F11.4°C 81% 5.4 mph WSW8.7 kmh WSW 10.5 mph16.9 kmh 29.74 in1007.1 mb 0.01 in0.3 mm 0.12 in3.0 mm 0.09 in2.3 mm
02:47 PM 57.0°F13.9°C 51.6°F10.9°C 82% 2.0 mph SW3.2 kmh SW 8.5 mph13.7 kmh 29.74 in1007.1 mb 0.05 in1.3 mm 0.48 in12.2 mm 0.12 in3.0 mm
02:52 PM 56.7°F13.7°C 51.8°F11.0°C 84% 4.5 mph SW7.2 kmh SW 9.6 mph15.4 kmh 29.74 in1007.1 mb 0.06 in1.5 mm 0.12 in3.0 mm 0.13 in3.3 mm
02:57 PM 56.1°F13.4°C 52.0°F11.1°C 86% 5.8 mph SSW9.3 kmh SSW 12.8 mph20.6 kmh 29.74 in1007.1 mb 0.08 in2.0 mm 0.24 in6.1 mm 0.15 in3.8 mm
03:02 PM 55.9°F13.3°C 51.8°F11.0°C 86% 4.3 mph SW6.9 kmh SW 10.5 mph16.9 kmh 29.74 in1007.1 mb 0.10 in2.5 mm 0.02 in0.5 mm 0.17 in4.3 mm
03:07 PM 55.8°F13.2°C 52.3°F11.3°C 88% 2.5 mph SSW4.0 kmh SSW 7.4 mph11.9 kmh 29.73 in1006.8 mb 0.10 in2.5 mm 0.00 in0.0 mm 0.17 in4.3 mm
03:12 PM 56.1°F13.4°C 52.9°F11.6°C 89% 0.7 mph S1.1 kmh S 5.4 mph8.7 kmh 29.73 in1006.8 mb 0.10 in2.5 mm 0.00 in0.0 mm 0.17 in4.3 mm
03:17 PM 56.3°F13.5°C 53.1°F11.7°C 89% 2.0 mph NW3.2 kmh NW 5.4 mph8.7 kmh 29.73 in1006.8 mb 0.11 in2.8 mm 0.12 in3.0 mm 0.18 in4.6 mm
03:22 PM 56.1°F13.4°C 52.7°F11.5°C 88% 6.9 mph WNW11.1 kmh WNW 13.9 mph22.4 kmh 29.73 in1006.8 mb 0.15 in3.8 mm 0.48 in12.2 mm 0.23 in5.8 mm
03:27 PM 55.6°F13.1°C 52.2°F11.2°C 88% 3.6 mph SW5.8 kmh SW 13.9 mph22.4 kmh 29.73 in1006.8 mb 0.18 in4.6 mm 0.36 in9.1 mm 0.25 in6.4 mm
03:32 PM 55.9°F13.3°C 52.7°F11.5°C 89% 2.5 mph SSW4.0 kmh SSW 6.3 mph10.1 kmh 29.73 in1006.8 mb 0.18 in4.6 mm 0.00 in0.0 mm 0.25 in6.4 mm
03:37 PM 56.5°F13.6°C 53.2°F11.8°C 89% 3.6 mph NW5.8 kmh NW 9.6 mph15.4 kmh 29.73 in1006.8 mb 0.18 in4.6 mm 0.00 in0.0 mm 0.25 in6.4 mm
03:42 PM 56.5°F13.6°C 52.9°F11.6°C 88% 4.9 mph W7.9 kmh W 9.6 mph15.4 kmh 29.73 in1006.8 mb 0.17 in4.3 mm 0.00 in0.0 mm 0.25 in6.4 mm
03:47 PM 56.1°F13.4°C 52.7°F11.5°C 88% 3.1 mph SSW5.0 kmh SSW 8.5 mph13.7 kmh 29.73 in1006.8 mb 0.13 in3.3 mm 0.00 in0.0 mm 0.25 in6.4 mm
03:52 PM 56.1°F13.4°C 52.7°F11.5°C 88% 4.0 mph WSW6.4 kmh WSW 10.5 mph16.9 kmh 29.73 in1006.8 mb 0.12 in3.0 mm 0.00 in0.0 mm 0.25 in6.4 mm
03:57 PM 56.1°F13.4°C 52.3°F11.3°C 87% 6.9 mph WSW11.1 kmh WSW 13.9 mph22.4 kmh 29.73 in1006.8 mb 0.10 in2.5 mm 0.00 in0.0 mm 0.25 in6.4 mm
04:02 PM 56.1°F13.4°C 52.0°F11.1°C 86% 2.5 mph W4.0 kmh W 10.5 mph16.9 kmh 29.73 in1006.8 mb 0.08 in2.0 mm 0.00 in0.0 mm 0.25 in6.4 mm
04:07 PM 56.7°F13.7°C 52.5°F11.4°C 86% 2.7 mph SW4.3 kmh SW 6.3 mph10.1 kmh 29.73 in1006.8 mb 0.08 in2.0 mm 0.00 in0.0 mm 0.25 in6.4 mm
04:12 PM 56.8°F13.8°C 53.1°F11.7°C 87% 3.4 mph WSW5.5 kmh WSW 7.4 mph11.9 kmh 29.73 in1006.8 mb 0.08 in2.0 mm 0.00 in0.0 mm 0.25 in6.4 mm
04:17 PM 56.8°F13.8°C 53.1°F11.7°C 87% 2.0 mph WSW3.2 kmh WSW 8.5 mph13.7 kmh 29.72 in1006.4 mb 0.07 in1.8 mm 0.00 in0.0 mm 0.25 in6.4 mm
04:22 PM 56.8°F13.8°C 52.7°F11.5°C 86% 4.5 mph SW7.2 kmh SW 9.6 mph15.4 kmh 29.72 in1006.4 mb 0.03 in0.8 mm 0.00 in0.0 mm 0.25 in6.4 mm
04:27 PM 57.4°F14.1°C 53.2°F11.8°C 86% 4.5 mph SW7.2 kmh SW 9.6 mph15.4 kmh 29.72 in1006.4 mb 0.00 in0.0 mm 0.00 in0.0 mm 0.25 in6.4 mm
04:32 PM 57.7°F14.3°C 52.7°F11.5°C 83% 5.8 mph NNW9.3 kmh NNW 13.9 mph22.4 kmh 29.72 in1006.4 mb 0.00 in0.0 mm 0.00 in0.0 mm 0.25 in6.4 mm
04:37 PM 58.6°F14.8°C 53.2°F11.8°C 82% 4.3 mph SW6.9 kmh SW 11.6 mph18.7 kmh 29.72 in1006.4 mb 0.00 in0.0 mm 0.00 in0.0 mm 0.25 in6.4 mm
04:42 PM 59.0°F15.0°C 52.5°F11.4°C 79% 5.8 mph SW9.3 kmh SW 12.8 mph20.6 kmh 29.72 in1006.4 mb 0.00 in0.0 mm 0.00 in0.0 mm 0.25 in6.4 mm
04:47 PM 58.6°F14.8°C 52.5°F11.4°C 80% 2.9 mph WNW4.7 kmh WNW 8.5 mph13.7 kmh 29.72 in1006.4 mb 0.00 in0.0 mm 0.00 in0.0 mm 0.25 in6.4 mm
04:52 PM 58.5°F14.7°C 52.0°F11.1°C 79% 4.3 mph WNW6.9 kmh WNW 9.6 mph15.4 kmh 29.72 in1006.4 mb 0.00 in0.0 mm 0.00 in0.0 mm 0.25 in6.4 mm
04:57 PM 58.3°F14.6°C 51.8°F11.0°C 79% 2.7 mph NW4.3 kmh NW 7.4 mph11.9 kmh 29.72 in1006.4 mb 0.00 in0.0 mm 0.00 in0.0 mm 0.25 in6.4 mm
05:02 PM 57.9°F14.4°C 51.1°F10.6°C 78% 3.4 mph WSW5.5 kmh WSW 12.8 mph20.6 kmh 29.72 in1006.4 mb 0.00 in0.0 mm 0.00 in0.0 mm 0.25 in6.4 mm
05:07 PM 57.7°F14.3°C 50.9°F10.5°C 78% 5.1 mph WSW8.2 kmh WSW 8.5 mph13.7 kmh 29.72 in1006.4 mb 0.00 in0.0 mm 0.00 in0.0 mm 0.25 in6.4 mm
05:12 PM 57.7°F14.3°C 51.3°F10.7°C 79% 1.3 mph W2.1 kmh W 7.4 mph11.9 kmh 29.73 in1006.8 mb 0.00 in0.0 mm 0.00 in0.0 mm 0.25 in6.4 mm
05:17 PM 57.7°F14.3°C 51.6°F10.9°C 80% 3.8 mph WSW6.1 kmh WSW 9.6 mph15.4 kmh 29.73 in1006.8 mb 0.00 in0.0 mm 0.00 in0.0 mm 0.25 in6.4 mm
05:22 PM 57.7°F14.3°C 51.6°F10.9°C 80% 4.5 mph WNW7.2 kmh WNW 9.6 mph15.4 kmh 29.73 in1006.8 mb 0.00 in0.0 mm 0.00 in0.0 mm 0.25 in6.4 mm
05:27 PM 57.0°F13.9°C 51.6°F10.9°C 82% 4.3 mph NW6.9 kmh NW 11.6 mph18.7 kmh 29.73 in1006.8 mb 0.00 in0.0 mm 0.00 in0.0 mm 0.25 in6.4 mm
05:32 PM 56.7°F13.7°C 51.6°F10.9°C 83% 4.3 mph NNE6.9 kmh NNE 10.5 mph16.9 kmh 29.73 in1006.8 mb 0.00 in0.0 mm 0.00 in0.0 mm 0.25 in6.4 mm
05:37 PM 56.5°F13.6°C 52.0°F11.1°C 85% 4.5 mph W7.2 kmh W 7.4 mph11.9 kmh 29.73 in1006.8 mb 0.01 in0.3 mm 0.12 in3.0 mm 0.26 in6.6 mm
05:42 PM 56.3°F13.5°C 52.2°F11.2°C 86% 2.9 mph NW4.7 kmh NW 8.5 mph13.7 kmh 29.73 in1006.8 mb 0.01 in0.3 mm 0.00 in0.0 mm 0.26 in6.6 mm
05:47 PM 56.5°F13.6°C 52.7°F11.5°C 87% 3.6 mph WSW5.8 kmh WSW 7.4 mph11.9 kmh 29.72 in1006.4 mb 0.01 in0.3 mm 0.00 in0.0 mm 0.26 in6.6 mm
05:52 PM 56.5°F13.6°C 52.7°F11.5°C 87% 1.1 mph SW1.8 kmh SW 6.3 mph10.1 kmh 29.73 in1006.8 mb 0.01 in0.3 mm 0.00 in0.0 mm 0.26 in6.6 mm
05:57 PM 56.5°F13.6°C 52.3°F11.3°C 86% 2.5 mph WNW4.0 kmh WNW 5.4 mph8.7 kmh 29.73 in1006.8 mb 0.01 in0.3 mm 0.00 in0.0 mm 0.26 in6.6 mm
06:02 PM 56.3°F13.5°C 52.5°F11.4°C 87% Calm Calm 6.3 mph10.1 kmh 29.73 in1006.8 mb 0.01 in0.3 mm 0.00 in0.0 mm 0.26 in6.6 mm
06:07 PM 56.1°F13.4°C 51.6°F10.9°C 85% 5.4 mph WSW8.7 kmh WSW 11.6 mph18.7 kmh 29.72 in1006.4 mb 0.01 in0.3 mm 0.00 in0.0 mm 0.26 in6.6 mm
06:12 PM 55.9°F13.3°C 51.3°F10.7°C 84% 4.9 mph S7.9 kmh S 10.5 mph16.9 kmh 29.73 in1006.8 mb 0.01 in0.3 mm 0.00 in0.0 mm 0.26 in6.6 mm
06:17 PM 55.9°F13.3°C 51.8°F11.0°C 86% 3.6 mph SSW5.8 kmh SSW 8.5 mph13.7 kmh 29.73 in1006.8 mb 0.04 in1.0 mm 0.36 in9.1 mm 0.29 in7.4 mm
06:22 PM 55.8°F13.2°C 52.0°F11.1°C 87% 2.7 mph SW4.3 kmh SW 6.3 mph10.1 kmh 29.73 in1006.8 mb 0.04 in1.0 mm 0.00 in0.0 mm 0.29 in7.4 mm
06:27 PM 55.8°F13.2°C 52.3°F11.3°C 88% 2.7 mph SW4.3 kmh SW 5.4 mph8.7 kmh 29.72 in1006.4 mb 0.04 in1.0 mm 0.00 in0.0 mm 0.29 in7.4 mm
06:32 PM 55.8°F13.2°C 52.3°F11.3°C 88% 2.0 mph SW3.2 kmh SW 5.4 mph8.7 kmh 29.72 in1006.4 mb 0.04 in1.0 mm 0.00 in0.0 mm 0.29 in7.4 mm
06:37 PM 56.1°F13.4°C 52.9°F11.6°C 89% 2.5 mph SW4.0 kmh SW 5.4 mph8.7 kmh 29.72 in1006.4 mb 0.03 in0.8 mm 0.00 in0.0 mm 0.29 in7.4 mm
06:42 PM 56.7°F13.7°C 53.1°F11.7°C 88% 4.7 mph SW7.6 kmh SW 8.5 mph13.7 kmh 29.72 in1006.4 mb 0.03 in0.8 mm 0.00 in0.0 mm 0.29 in7.4 mm
06:47 PM 56.8°F13.8°C 53.1°F11.7°C 87% 4.3 mph SSW6.9 kmh SSW 8.5 mph13.7 kmh 29.72 in1006.4 mb 0.03 in0.8 mm 0.00 in0.0 mm 0.29 in7.4 mm
06:52 PM 56.8°F13.8°C 53.1°F11.7°C 87% 3.8 mph SW6.1 kmh SW 8.5 mph13.7 kmh 29.72 in1006.4 mb 0.03 in0.8 mm 0.00 in0.0 mm 0.29 in7.4 mm
06:57 PM 56.8°F13.8°C 53.1°F11.7°C 87% 2.0 mph SE3.2 kmh SE 5.4 mph8.7 kmh 29.72 in1006.4 mb 0.03 in0.8 mm 0.00 in0.0 mm 0.29 in7.4 mm
07:02 PM 56.8°F13.8°C 53.1°F11.7°C 87% 2.0 mph SW3.2 kmh SW 4.3 mph6.9 kmh 29.72 in1006.4 mb 0.03 in0.8 mm 0.00 in0.0 mm 0.29 in7.4 mm
07:07 PM 56.8°F13.8°C 53.1°F11.7°C 87% 1.3 mph SSW2.1 kmh SSW 4.3 mph6.9 kmh 29.73 in1006.8 mb 0.03 in0.8 mm 0.00 in0.0 mm 0.29 in7.4 mm
07:12 PM 56.8°F13.8°C 53.1°F11.7°C 87% 0.2 mph SW0.3 kmh SW 4.3 mph6.9 kmh 29.73 in1006.8 mb 0.03 in0.8 mm 0.00 in0.0 mm 0.29 in7.4 mm
07:17 PM 56.8°F13.8°C 53.1°F11.7°C 87% 1.8 mph SSW2.9 kmh SSW 3.1 mph5.0 kmh 29.73 in1006.8 mb 0.00 in0.0 mm 0.00 in0.0 mm 0.29 in7.4 mm
07:22 PM 56.7°F13.7°C 52.9°F11.6°C 87% 1.3 mph SSW2.1 kmh SSW 4.3 mph6.9 kmh 29.73 in1006.8 mb 0.00 in0.0 mm 0.00 in0.0 mm 0.29 in7.4 mm
07:27 PM 56.5°F13.6°C 52.7°F11.5°C 87% 2.2 mph SW3.5 kmh SW 4.3 mph6.9 kmh 29.73 in1006.8 mb 0.00 in0.0 mm 0.00 in0.0 mm 0.29 in7.4 mm
07:32 PM 56.3°F13.5°C 52.5°F11.4°C 87% 0.2 mph W0.3 kmh W 4.3 mph6.9 kmh 29.74 in1007.1 mb 0.00 in0.0 mm 0.00 in0.0 mm 0.29 in7.4 mm
07:37 PM 56.1°F13.4°C 52.3°F11.3°C 87% Calm Calm 1.1 mph1.8 kmh 29.74 in1007.1 mb 0.00 in0.0 mm 0.00 in0.0 mm 0.29 in7.4 mm
07:42 PM 55.9°F13.3°C 52.5°F11.4°C 88% Calm Calm 1.1 mph1.8 kmh 29.74 in1007.1 mb 0.00 in0.0 mm 0.00 in0.0 mm 0.29 in7.4 mm
07:47 PM 55.6°F13.1°C 52.2°F11.2°C 88% 0.2 mph SE0.3 kmh SE 1.1 mph1.8 kmh 29.74 in1007.1 mb 0.00 in0.0 mm 0.00 in0.0 mm 0.29 in7.4 mm
07:52 PM 55.4°F13.0°C 52.0°F11.1°C 88% Calm Calm -- 29.74 in1007.1 mb 0.00 in0.0 mm 0.00 in0.0 mm 0.29 in7.4 mm
07:57 PM 55.0°F12.8°C 51.6°F10.9°C 88% 0.9 mph SE1.4 kmh SE 2.0 mph3.2 kmh 29.74 in1007.1 mb 0.00 in0.0 mm 0.00 in0.0 mm 0.29 in7.4 mm
08:02 PM 54.9°F12.7°C 51.6°F10.9°C 89% Calm Calm 2.0 mph3.2 kmh 29.74 in1007.1 mb 0.00 in0.0 mm 0.00 in0.0 mm 0.29 in7.4 mm
08:07 PM 54.7°F12.6°C 51.4°F10.8°C 89% Calm Calm -- 29.75 in1007.5 mb 0.00 in0.0 mm 0.00 in0.0 mm 0.29 in7.4 mm
08:12 PM 54.5°F12.5°C 51.3°F10.7°C 89% Calm Calm -- 29.75 in1007.5 mb 0.00 in0.0 mm 0.00 in0.0 mm 0.29 in7.4 mm
08:17 PM 54.5°F12.5°C 51.6°F10.9°C 90% Calm Calm -- 29.75 in1007.5 mb 0.00 in0.0 mm 0.00 in0.0 mm 0.29 in7.4 mm
08:22 PM 54.7°F12.6°C 51.8°F11.0°C 90% Calm Calm -- 29.75 in1007.5 mb 0.00 in0.0 mm 0.00 in0.0 mm 0.29 in7.4 mm
08:27 PM 54.7°F12.6°C 51.8°F11.0°C 90% Calm Calm -- 29.75 in1007.5 mb 0.00 in0.0 mm 0.00 in0.0 mm 0.29 in7.4 mm
08:32 PM 54.9°F12.7°C 52.0°F11.1°C 90% Calm Calm -- 29.76 in1007.8 mb 0.00 in0.0 mm 0.00 in0.0 mm 0.29 in7.4 mm
08:37 PM 54.9°F12.7°C 52.0°F11.1°C 90% Calm Calm -- 29.76 in1007.8 mb 0.00 in0.0 mm 0.00 in0.0 mm 0.29 in7.4 mm
08:42 PM 54.7°F12.6°C 51.8°F11.0°C 90% Calm Calm -- 29.76 in1007.8 mb 0.00 in0.0 mm 0.00 in0.0 mm 0.29 in7.4 mm
08:47 PM 54.7°F12.6°C 52.2°F11.2°C 91% Calm Calm -- 29.76 in1007.8 mb 0.00 in0.0 mm 0.00 in0.0 mm 0.29 in7.4 mm
08:52 PM 54.5°F12.5°C 52.0°F11.1°C 91% Calm Calm -- 29.77 in1008.1 mb 0.00 in0.0 mm 0.00 in0.0 mm 0.29 in7.4 mm
08:57 PM 54.7°F12.6°C 52.2°F11.2°C 91% Calm Calm -- 29.77 in1008.1 mb 0.00 in0.0 mm 0.00 in0.0 mm 0.29 in7.4 mm
09:02 PM 54.7°F12.6°C 52.2°F11.2°C 91% Calm Calm -- 29.77 in1008.1 mb 0.00 in0.0 mm 0.00 in0.0 mm 0.29 in7.4 mm
09:07 PM 54.7°F12.6°C 52.2°F11.2°C 91% Calm Calm -- 29.77 in1008.1 mb 0.00 in0.0 mm 0.00 in0.0 mm 0.29 in7.4 mm
09:12 PM 54.7°F12.6°C 52.2°F11.2°C 91% Calm Calm -- 29.77 in1008.1 mb 0.00 in0.0 mm 0.00 in0.0 mm 0.29 in7.4 mm
09:17 PM 54.7°F12.6°C 52.2°F11.2°C 91% Calm Calm -- 29.77 in1008.1 mb 0.00 in0.0 mm 0.00 in0.0 mm 0.29 in7.4 mm
09:22 PM 54.7°F12.6°C 52.2°F11.2°C 91% Calm Calm -- 29.77 in1008.1 mb 0.00 in0.0 mm 0.00 in0.0 mm 0.29 in7.4 mm
09:27 PM 54.7°F12.6°C 52.2°F11.2°C 91% Calm Calm -- 29.77 in1008.1 mb 0.00 in0.0 mm 0.00 in0.0 mm 0.29 in7.4 mm
09:32 PM 54.9°F12.7°C 52.3°F11.3°C 91% Calm Calm -- 29.78 in1008.5 mb 0.00 in0.0 mm 0.00 in0.0 mm 0.29 in7.4 mm
09:37 PM 54.9°F12.7°C 52.3°F11.3°C 91% Calm Calm -- 29.78 in1008.5 mb 0.00 in0.0 mm 0.00 in0.0 mm 0.29 in7.4 mm
09:42 PM 54.9°F12.7°C 52.3°F11.3°C 91% Calm Calm -- 29.78 in1008.5 mb 0.00 in0.0 mm 0.00 in0.0 mm 0.29 in7.4 mm
09:47 PM 54.9°F12.7°C 52.3°F11.3°C 91% Calm Calm -- 29.78 in1008.5 mb 0.00 in0.0 mm 0.00 in0.0 mm 0.29 in7.4 mm
09:52 PM 54.7°F12.6°C 52.2°F11.2°C 91% Calm Calm -- 29.78 in1008.5 mb 0.00 in0.0 mm 0.00 in0.0 mm 0.29 in7.4 mm
09:57 PM 54.7°F12.6°C 52.3°F11.3°C 92% Calm Calm -- 29.78 in1008.5 mb 0.00 in0.0 mm 0.00 in0.0 mm 0.29 in7.4 mm
10:02 PM 54.7°F12.6°C 52.3°F11.3°C 92% Calm Calm -- 29.79 in1008.8 mb 0.00 in0.0 mm 0.00 in0.0 mm 0.29 in7.4 mm
10:07 PM 54.5°F12.5°C 52.2°F11.2°C 92% Calm Calm -- 29.79 in1008.8 mb 0.00 in0.0 mm 0.00 in0.0 mm 0.29 in7.4 mm
10:12 PM 54.5°F12.5°C 52.2°F11.2°C 92% Calm Calm -- 29.79 in1008.8 mb 0.00 in0.0 mm 0.00 in0.0 mm 0.29 in7.4 mm
10:17 PM 54.5°F12.5°C 52.2°F11.2°C 92% Calm Calm -- 29.80 in1009.1 mb 0.00 in0.0 mm 0.00 in0.0 mm 0.29 in7.4 mm
10:22 PM 54.5°F12.5°C 52.2°F11.2°C 92% Calm Calm -- 29.79 in1008.8 mb 0.00 in0.0 mm 0.00 in0.0 mm 0.29 in7.4 mm
10:27 PM 54.3°F12.4°C 52.0°F11.1°C 92% Calm Calm -- 29.79 in1008.8 mb 0.00 in0.0 mm 0.00 in0.0 mm 0.29 in7.4 mm
10:32 PM 54.3°F12.4°C 52.0°F11.1°C 92% Calm Calm -- 29.79 in1008.8 mb 0.00 in0.0 mm 0.00 in0.0 mm 0.29 in7.4 mm
10:37 PM 54.1°F12.3°C 51.8°F11.0°C 92% Calm Calm -- 29.79 in1008.8 mb 0.00 in0.0 mm 0.00 in0.0 mm 0.29 in7.4 mm
10:42 PM 54.0°F12.2°C 51.6°F10.9°C 92% Calm Calm -- 29.79 in1008.8 mb 0.00 in0.0 mm 0.00 in0.0 mm 0.29 in7.4 mm
10:47 PM 54.0°F12.2°C 51.6°F10.9°C 92% Calm Calm -- 29.80 in1009.1 mb 0.00 in0.0 mm 0.00 in0.0 mm 0.29 in7.4 mm
10:52 PM 54.0°F12.2°C 52.0°F11.1°C 93% Calm Calm -- 29.80 in1009.1 mb 0.00 in0.0 mm 0.00 in0.0 mm 0.29 in7.4 mm
10:57 PM 54.0°F12.2°C 52.0°F11.1°C 93% Calm Calm -- 29.80 in1009.1 mb 0.00 in0.0 mm 0.00 in0.0 mm 0.29 in7.4 mm
11:02 PM 54.0°F12.2°C 52.0°F11.1°C 93% Calm Calm -- 29.80 in1009.1 mb 0.00 in0.0 mm 0.00 in0.0 mm 0.29 in7.4 mm
11:07 PM 54.0°F12.2°C 52.0°F11.1°C 93% Calm Calm -- 29.80 in1009.1 mb 0.00 in0.0 mm 0.00 in0.0 mm 0.29 in7.4 mm
11:12 PM 54.0°F12.2°C 52.0°F11.1°C 93% Calm Calm -- 29.80 in1009.1 mb 0.00 in0.0 mm 0.00 in0.0 mm 0.29 in7.4 mm
11:17 PM 54.0°F12.2°C 52.0°F11.1°C 93% Calm Calm -- 29.81 in1009.5 mb 0.00 in0.0 mm 0.00 in0.0 mm 0.29 in7.4 mm
11:22 PM 54.0°F12.2°C 52.0°F11.1°C 93% Calm Calm -- 29.81 in1009.5 mb 0.00 in0.0 mm 0.00 in0.0 mm 0.29 in7.4 mm
11:27 PM 54.0°F12.2°C 52.0°F11.1°C 93% Calm Calm -- 29.81 in1009.5 mb 0.00 in0.0 mm 0.00 in0.0 mm 0.29 in7.4 mm
11:32 PM 54.0°F12.2°C 52.0°F11.1°C 93% Calm Calm -- 29.81 in1009.5 mb 0.00 in0.0 mm 0.00 in0.0 mm 0.29 in7.4 mm
11:37 PM 54.0°F12.2°C 52.0°F11.1°C 93% Calm Calm -- 29.81 in1009.5 mb 0.00 in0.0 mm 0.00 in0.0 mm 0.29 in7.4 mm
11:42 PM 54.0°F12.2°C 52.3°F11.3°C 94% Calm Calm -- 29.81 in1009.5 mb 0.00 in0.0 mm 0.00 in0.0 mm 0.29 in7.4 mm
11:47 PM 54.0°F12.2°C 52.0°F11.1°C 93% Calm Calm -- 29.82 in1009.8 mb 0.00 in0.0 mm 0.00 in0.0 mm 0.29 in7.4 mm
11:52 PM 54.0°F12.2°C 52.3°F11.3°C 94% Calm Calm -- 29.82 in1009.8 mb 0.00 in0.0 mm 0.00 in0.0 mm 0.29 in7.4 mm
11:57 PM 54.0°F12.2°C 52.3°F11.3°C 94% Calm Calm -- 29.82 in1009.8 mb 0.00 in0.0 mm 0.00 in0.0 mm 0.29 in7.4 mm